Time;durP1;ratioP1;P1;durP2;ratioP2;P2;SDS_P1;SDS_P2;PMS_P1;PMS_P2;Temp;Humidity;BMP_temperature;BMP_pressure;BME280_temperature;BME280_humidity;BME280_pressure;Samples;Min_cycle;Max_cycle;Signal;HPM_P1;HPM_P2
2022/03/17 00:02:06;;;;;;;65.00;36.00;;;6.20;99.90;;;;;;5122477;28;20302;-49
2022/03/17 00:04:36;;;;;;;68.47;34.60;;;6.20;99.90;;;;;;5140266;28;20659;-49
2022/03/17 00:07:07;;;;;;;67.43;34.50;;;6.20;99.90;;;;;;5138985;28;20215;-48
2022/03/17 00:09:38;;;;;;;66.73;35.90;;;6.20;99.90;;;;;;5141629;28;20198;-48
2022/03/17 00:12:09;;;;;;;74.27;35.97;;;6.10;99.90;;;;;;5139846;28;20476;-50
2022/03/17 00:14:40;;;;;;;69.77;33.70;;;6.10;99.90;;;;;;5141566;28;20536;-48
2022/03/17 00:17:10;;;;;;;69.57;35.27;;;6.10;99.90;;;;;;5173115;23;20501;-46
2022/03/17 00:19:41;;;;;;;66.37;36.93;;;6.10;99.90;;;;;;5177689;28;20269;-47
2022/03/17 00:22:15;;;;;;;69.87;35.80;;;6.10;99.90;;;;;;5183322;28;20667;-46
2022/03/17 00:24:48;;;;;;;60.30;34.20;;;6.10;99.90;;;;;;5179085;28;20213;-46
2022/03/17 00:27:19;;;;;;;66.13;35.13;;;6.00;99.90;;;;;;5169019;28;20469;-46
2022/03/17 00:29:50;;;;;;;68.63;35.90;;;6.00;99.90;;;;;;5164323;28;20439;-47
2022/03/17 00:32:20;;;;;;;62.47;35.23;;;6.00;99.90;;;;;;5161610;28;20208;-45
2022/03/17 00:37:40;;;;;;;65.90;34.00;;;6.00;99.90;;;;;;5163807;28;20697;-47
2022/03/17 00:40:11;;;;;;;69.17;36.37;;;6.00;99.90;;;;;;5159167;28;20438;-46
2022/03/17 00:42:41;;;;;;;63.13;37.27;;;5.90;99.90;;;;;;5164900;28;20598;-46
2022/03/17 00:45:12;;;;;;;74.63;35.40;;;5.90;99.90;;;;;;5159942;28;20956;-46
2022/03/17 00:47:43;;;;;;;73.23;38.07;;;5.90;99.90;;;;;;5159738;28;20205;-46
2022/03/17 00:50:13;;;;;;;67.23;36.87;;;5.90;99.90;;;;;;5158370;28;20599;-46
2022/03/17 00:52:44;;;;;;;65.47;35.20;;;5.90;99.90;;;;;;5165215;28;20634;-45
2022/03/17 00:55:15;;;;;;;71.27;36.13;;;5.90;99.90;;;;;;5163669;28;20186;-47
2022/03/17 00:57:46;;;;;;;74.67;35.43;;;5.90;99.90;;;;;;5159052;28;20189;-46
2022/03/17 01:00:18;;;;;;;67.23;35.57;;;5.90;99.90;;;;;;5145963;28;20242;-47
2022/03/17 01:02:51;;;;;;;70.33;38.13;;;5.90;99.90;;;;;;5156964;28;20450;-46
2022/03/17 01:05:23;;;;;;;62.10;34.17;;;5.90;99.90;;;;;;5162628;28;20792;-46
2022/03/17 01:07:54;;;;;;;71.97;35.90;;;5.80;99.90;;;;;;5161757;28;22109;-47
2022/03/17 01:10:24;;;;;;;66.50;35.10;;;5.80;99.90;;;;;;5160771;28;20826;-46
2022/03/17 01:12:56;;;;;;;69.20;36.50;;;5.80;99.90;;;;;;5156045;28;20450;-46
2022/03/17 01:15:29;;;;;;;71.27;38.47;;;5.80;99.90;;;;;;5165566;28;20620;-47
2022/03/17 01:17:59;;;;;;;61.13;35.90;;;5.80;99.90;;;;;;5160273;28;20972;-46
2022/03/17 01:20:30;;;;;;;63.90;36.07;;;5.70;99.90;;;;;;5155903;28;20446;-47
2022/03/17 01:23:01;;;;;;;74.33;37.80;;;5.70;99.90;;;;;;5159417;28;20206;-45
2022/03/17 01:25:32;;;;;;;68.70;36.20;;;5.70;99.90;;;;;;5172766;28;20221;-46
2022/03/17 01:28:02;;;;;;;70.33;36.30;;;5.70;99.90;;;;;;5162380;28;20665;-46
2022/03/17 01:30:35;;;;;;;74.93;39.50;;;5.70;99.90;;;;;;5164939;28;20470;-46
2022/03/17 01:33:05;;;;;;;65.93;35.87;;;5.60;99.90;;;;;;5169972;28;20565;-46
2022/03/17 01:35:36;;;;;;;77.50;38.13;;;5.70;99.90;;;;;;5174582;28;20470;-46
2022/03/17 01:38:06;;;;;;;74.90;38.17;;;5.60;99.90;;;;;;5166049;28;20192;-46
2022/03/17 01:40:37;;;;;;;81.43;39.63;;;5.60;99.90;;;;;;5166489;28;20184;-46
2022/03/17 01:43:08;;;;;;;76.07;38.17;;;5.60;99.90;;;;;;5166060;28;20280;-46
2022/03/17 01:45:38;;;;;;;63.27;36.80;;;5.60;99.90;;;;;;5173285;28;20181;-47
2022/03/17 01:48:09;;;;;;;70.93;36.80;;;5.60;99.90;;;;;;5162797;28;20193;-45
2022/03/17 01:50:39;;;;;;;72.07;38.07;;;5.60;99.90;;;;;;5165182;28;20207;-46
2022/03/17 01:53:10;;;;;;;72.53;38.80;;;5.60;99.90;;;;;;5168893;28;20559;-45
2022/03/17 01:55:40;;;;;;;77.40;40.57;;;5.50;99.90;;;;;;5168396;28;20212;-45
2022/03/17 01:58:11;;;;;;;71.63;39.30;;;5.50;99.90;;;;;;5160612;28;20315;-47
2022/03/17 02:00:43;;;;;;;73.20;40.63;;;5.50;99.90;;;;;;5171536;28;20189;-47
2022/03/17 02:03:13;;;;;;;69.37;38.33;;;5.50;99.90;;;;;;5164191;28;20187;-47
2022/03/17 02:05:44;;;;;;;78.43;39.77;;;5.50;99.90;;;;;;5167440;28;20441;-46
2022/03/17 02:08:15;;;;;;;75.40;38.53;;;5.50;99.90;;;;;;5163191;28;20189;-47
2022/03/17 02:13:34;;;;;;;76.53;39.77;;;5.50;99.90;;;;;;5162690;28;20189;-46
2022/03/17 02:16:07;;;;;;;76.73;40.73;;;5.50;99.90;;;;;;5166428;28;20464;-46
2022/03/17 02:18:37;;;;;;;81.70;39.33;;;5.40;99.90;;;;;;5161564;28;20258;-45
2022/03/17 02:21:08;;;;;;;73.80;39.90;;;5.40;99.90;;;;;;5170264;28;20546;-46
2022/03/17 02:26:30;;;;;;;79.63;41.60;;;5.40;99.90;;;;;;5170761;28;20460;-45
2022/03/17 02:29:01;;;;;;;81.20;39.77;;;5.40;99.90;;;;;;5161026;28;20460;-46
2022/03/17 02:31:32;;;;;;;62.43;37.60;;;5.40;99.90;;;;;;5164700;28;20476;-47
2022/03/17 02:34:02;;;;;;;75.40;40.83;;;5.40;99.90;;;;;;5183165;28;20552;-46
2022/03/17 02:36:33;;;;;;;74.13;38.60;;;5.30;99.90;;;;;;5165674;28;20664;-47
2022/03/17 02:39:06;;;;;;;76.83;41.67;;;5.30;99.90;;;;;;5166642;28;20186;-47
2022/03/17 02:41:37;;;;;;;69.10;37.87;;;5.30;99.90;;;;;;5164225;28;20195;-46
2022/03/17 02:44:07;;;;;;;68.90;41.70;;;5.40;99.90;;;;;;5169496;28;20450;-46
2022/03/17 02:46:38;;;;;;;75.37;38.40;;;5.40;99.90;;;;;;5156957;28;20703;-50
2022/03/17 02:49:09;;;;;;;85.27;41.30;;;5.30;99.90;;;;;;5161546;28;20187;-46
2022/03/17 02:51:39;;;;;;;74.00;39.50;;;5.30;99.90;;;;;;5159394;28;20524;-47
2022/03/17 02:54:10;;;;;;;77.20;38.60;;;5.30;99.90;;;;;;5161150;28;20268;-46
2022/03/17 02:56:40;;;;;;;69.63;37.47;;;5.30;99.90;;;;;;5173551;28;20200;-46
2022/03/17 02:59:11;;;;;;;73.07;39.23;;;5.20;99.90;;;;;;5166092;28;20213;-48
2022/03/17 03:01:41;;;;;;;75.00;39.97;;;5.20;99.90;;;;;;5169012;28;20176;-45
2022/03/17 03:04:16;;;;;;;68.93;38.50;;;5.20;99.90;;;;;;5161687;28;20266;-47
2022/03/17 03:06:46;;;;;;;84.77;41.80;;;5.20;99.90;;;;;;5165354;28;20200;-47
2022/03/17 03:09:17;;;;;;;64.70;36.23;;;5.20;99.90;;;;;;5173436;28;20488;-47
2022/03/17 03:11:47;;;;;;;66.63;39.03;;;5.20;99.90;;;;;;5161381;28;20213;-47
2022/03/17 03:14:18;;;;;;;76.07;40.70;;;5.20;99.90;;;;;;5170888;28;20230;-44
2022/03/17 03:16:50;;;;;;;69.70;40.13;;;5.20;99.90;;;;;;5162652;28;20686;-44
2022/03/17 03:19:20;;;;;;;68.47;39.60;;;5.20;99.90;;;;;;5162475;28;20502;-45
2022/03/17 03:21:51;;;;;;;73.43;37.40;;;5.20;99.90;;;;;;5169051;28;20439;-45
2022/03/17 03:24:21;;;;;;;70.00;39.70;;;5.20;99.90;;;;;;5157154;28;20195;-44
2022/03/17 03:26:52;;;;;;;79.53;40.47;;;5.20;99.90;;;;;;5162186;28;20219;-44
2022/03/17 03:29:22;;;;;;;81.20;39.67;;;5.10;99.90;;;;;;5167743;28;20193;-44
2022/03/17 03:32:00;;;;;;;70.10;39.50;;;5.20;99.90;;;;;;5161962;28;20223;-47
2022/03/17 03:34:32;;;;;;;74.10;39.20;;;5.20;99.90;;;;;;5159325;28;20177;-44
2022/03/17 03:39:54;;;;;;;80.37;38.77;;;5.20;99.90;;;;;;5168275;28;20582;-43
2022/03/17 03:42:25;;;;;;;78.57;41.13;;;5.20;99.90;;;;;;5165585;28;20439;-44
2022/03/17 03:44:56;;;;;;;76.73;39.27;;;5.20;99.90;;;;;;5165823;28;20475;-44
2022/03/17 03:47:27;;;;;;;70.47;38.73;;;5.20;99.90;;;;;;5157640;28;20455;-44
2022/03/17 03:49:57;;;;;;;78.43;39.53;;;5.10;99.90;;;;;;5167830;28;20185;-47
2022/03/17 03:52:28;;;;;;;70.53;38.77;;;5.10;99.90;;;;;;5168989;28;20235;-43
2022/03/17 03:54:58;;;;;;;81.33;40.80;;;5.10;99.90;;;;;;5169723;28;20178;-44
2022/03/17 03:57:29;;;;;;;75.33;41.90;;;5.10;99.90;;;;;;5159392;28;20634;-44
2022/03/17 03:59:59;;;;;;;79.97;41.27;;;5.00;99.90;;;;;;5163274;28;20177;-45
2022/03/17 04:02:30;;;;;;;80.63;41.87;;;5.00;99.90;;;;;;5159623;28;20186;-48
2022/03/17 04:05:00;;;;;;;80.10;43.73;;;5.10;99.90;;;;;;5166816;28;20230;-46
2022/03/17 04:07:31;;;;;;;72.23;42.40;;;5.00;99.90;;;;;;5161136;28;20294;-45
2022/03/17 04:10:01;;;;;;;68.13;39.80;;;5.00;99.90;;;;;;5161743;28;20205;-44
2022/03/17 04:12:32;;;;;;;75.53;39.47;;;5.00;99.90;;;;;;5160164;28;20700;-45
2022/03/17 04:15:03;;;;;;;80.53;41.60;;;5.00;99.90;;;;;;5145276;28;20189;-45
2022/03/17 04:17:33;;;;;;;72.70;41.43;;;4.90;99.90;;;;;;5161846;28;20217;-45
2022/03/17 04:20:05;;;;;;;79.07;43.13;;;4.90;99.90;;;;;;5160908;28;20439;-46
2022/03/17 04:22:37;;;;;;;79.60;41.07;;;4.90;99.90;;;;;;5165595;28;20215;-45
2022/03/17 04:25:08;;;;;;;81.87;41.23;;;5.00;99.90;;;;;;5166991;28;20456;-47
2022/03/17 04:27:38;;;;;;;92.90;43.10;;;4.90;99.90;;;;;;5161893;28;20525;-46
2022/03/17 04:30:09;;;;;;;79.23;41.60;;;5.00;99.90;;;;;;5163507;28;20248;-45
2022/03/17 04:32:40;;;;;;;77.23;42.80;;;5.00;99.90;;;;;;5167409;28;20357;-45
2022/03/17 04:35:11;;;;;;;87.33;43.43;;;4.90;99.90;;;;;;5167408;28;20503;-46
2022/03/17 04:37:41;;;;;;;80.80;42.37;;;5.00;99.90;;;;;;5169564;28;20535;-44
2022/03/17 04:40:13;;;;;;;83.03;43.90;;;4.90;99.90;;;;;;5163161;28;20211;-45
2022/03/17 04:42:43;;;;;;;88.10;44.17;;;4.90;99.90;;;;;;5160646;28;20178;-45
2022/03/17 04:45:14;;;;;;;74.53;42.13;;;4.80;99.90;;;;;;5161331;28;21020;-47
2022/03/17 04:47:45;;;;;;;75.10;41.90;;;4.90;99.90;;;;;;5161668;28;20205;-45
2022/03/17 04:50:15;;;;;;;93.20;43.83;;;4.80;99.90;;;;;;5161435;28;20274;-47
2022/03/17 04:55:35;;;;;;;88.97;44.40;;;4.80;99.90;;;;;;5155891;28;20231;-46
2022/03/17 04:58:06;;;;;;;86.53;44.23;;;4.80;99.90;;;;;;5167668;28;20483;-46
2022/03/17 05:00:37;;;;;;;78.13;44.07;;;4.90;99.90;;;;;;5152520;28;20192;-47
2022/03/17 05:03:08;;;;;;;90.73;46.00;;;4.80;99.90;;;;;;5161653;28;20814;-45
2022/03/17 05:05:39;;;;;;;78.77;44.23;;;4.80;99.90;;;;;;5159540;28;20259;-45
2022/03/17 05:08:09;;;;;;;87.33;46.63;;;4.80;99.90;;;;;;5145675;28;20519;-46
2022/03/17 05:10:44;;;;;;;89.50;45.80;;;4.80;99.90;;;;;;5159839;28;20261;-46
2022/03/17 05:13:16;;;;;;;85.50;48.57;;;4.80;99.90;;;;;;5158728;28;20712;-46
2022/03/17 05:15:47;;;;;;;89.83;46.67;;;4.80;99.90;;;;;;5159678;28;20431;-47
2022/03/17 05:18:19;;;;;;;86.07;47.03;;;4.90;99.90;;;;;;5158375;28;20441;-46
2022/03/17 05:20:49;;;;;;;86.33;46.37;;;4.70;99.90;;;;;;5157711;28;20428;-45
2022/03/17 05:23:22;;;;;;;89.53;45.47;;;4.70;99.90;;;;;;5156962;28;20458;-46
2022/03/17 05:25:52;;;;;;;84.70;45.80;;;4.70;99.90;;;;;;5160358;28;20536;-44
2022/03/17 05:28:23;;;;;;;83.43;44.93;;;4.60;99.90;;;;;;5158451;28;20432;-45
2022/03/17 05:30:53;;;;;;;91.03;46.77;;;4.60;99.90;;;;;;5153950;28;20695;-45
2022/03/17 05:33:24;;;;;;;88.77;46.30;;;4.60;99.90;;;;;;5156184;28;20193;-46
2022/03/17 05:35:55;;;;;;;98.17;47.40;;;4.60;99.90;;;;;;5160837;28;20638;-45
2022/03/17 05:38:25;;;;;;;90.27;48.57;;;4.50;99.90;;;;;;5158278;28;20547;-46
2022/03/17 05:40:56;;;;;;;87.03;48.47;;;4.50;99.90;;;;;;5160275;28;20276;-47
2022/03/17 05:43:27;;;;;;;97.07;48.87;;;4.50;99.90;;;;;;5159022;28;20185;-45
2022/03/17 05:45:58;;;;;;;88.63;47.20;;;4.50;99.90;;;;;;5173531;28;20200;-45
2022/03/17 05:48:28;;;;;;;92.10;49.20;;;4.50;99.90;;;;;;5162719;28;20185;-45
2022/03/17 05:50:59;;;;;;;94.93;49.80;;;4.50;99.90;;;;;;5166918;28;20201;-45
2022/03/17 05:53:29;;;;;;;92.03;48.33;;;4.50;99.90;;;;;;5178282;28;20532;-45
2022/03/17 05:56:00;;;;;;;94.73;49.07;;;4.50;99.90;;;;;;5165257;28;20213;-46
2022/03/17 05:58:30;;;;;;;97.60;50.70;;;4.50;99.90;;;;;;5158063;28;20197;-44
2022/03/17 06:01:00;;;;;;;98.57;49.40;;;4.50;99.90;;;;;;5160658;28;20189;-44
2022/03/17 06:03:31;;;;;;;100.00;52.87;;;4.50;99.90;;;;;;5149609;28;20264;-45
2022/03/17 06:06:03;;;;;;;90.97;50.30;;;4.60;99.90;;;;;;5158760;28;20544;-46
2022/03/17 06:08:33;;;;;;;95.47;49.23;;;4.60;99.90;;;;;;5151398;28;20216;-48
2022/03/17 06:11:06;;;;;;;88.40;49.13;;;4.60;99.90;;;;;;5158522;28;20464;-47
2022/03/17 06:13:37;;;;;;;91.43;48.37;;;4.60;99.90;;;;;;5157397;28;20576;-45
2022/03/17 06:16:07;;;;;;;97.40;51.80;;;4.70;99.90;;;;;;5176546;22;20554;-51
2022/03/17 06:18:39;;;;;;;94.70;52.60;;;4.70;99.90;;;;;;5122986;28;20205;-48
2022/03/17 06:21:10;;;;;;;102.87;51.20;;;4.70;99.90;;;;;;5134761;28;20190;-52
2022/03/17 06:23:41;;;;;;;105.07;51.47;;;4.70;99.90;;;;;;5136840;28;20490;-49
2022/03/17 06:26:11;;;;;;;98.70;49.53;;;4.80;99.90;;;;;;5129824;28;20653;-50
2022/03/17 06:28:42;;;;;;;93.77;49.53;;;4.80;99.90;;;;;;5135621;28;20245;-49
2022/03/17 06:31:12;;;;;;;101.20;53.37;;;4.90;99.90;;;;;;5148682;28;20214;-48
2022/03/17 06:33:45;;;;;;;99.73;51.10;;;4.90;99.90;;;;;;5133418;28;20632;-49
2022/03/17 06:36:16;;;;;;;110.33;52.43;;;5.00;99.90;;;;;;5142597;28;20198;-49
2022/03/17 06:38:46;;;;;;;95.90;49.30;;;5.00;99.90;;;;;;5128204;28;20442;-50
2022/03/17 06:41:17;;;;;;;112.73;50.10;;;5.00;99.90;;;;;;5137393;28;20195;-50
2022/03/17 06:43:47;;;;;;;113.47;53.53;;;5.10;99.90;;;;;;5142460;28;20186;-48
2022/03/17 06:46:18;;;;;;;97.87;52.07;;;5.10;99.90;;;;;;5131071;28;20242;-50
2022/03/17 06:48:48;;;;;;;104.80;50.23;;;5.10;99.90;;;;;;5135750;28;20231;-52
2022/03/17 06:51:19;;;;;;;93.40;49.80;;;5.10;99.90;;;;;;5133621;28;20214;-49
2022/03/17 06:53:49;;;;;;;99.00;51.50;;;5.20;99.90;;;;;;5131675;28;20186;-49
2022/03/17 06:56:20;;;;;;;101.83;54.73;;;5.30;99.90;;;;;;5140495;28;20328;-48
2022/03/17 06:58:50;;;;;;;96.23;50.97;;;5.30;99.90;;;;;;5129419;28;20206;-49
2022/03/17 07:01:21;;;;;;;100.13;54.13;;;5.30;99.90;;;;;;5112231;28;20190;-48
2022/03/17 07:03:51;;;;;;;99.67;53.90;;;5.30;99.90;;;;;;5145260;28;20197;-48
2022/03/17 07:06:22;;;;;;;107.47;52.00;;;5.40;99.90;;;;;;5137548;28;20212;-49
2022/03/17 07:08:52;;;;;;;94.63;52.97;;;5.40;99.90;;;;;;5135002;28;20185;-50
2022/03/17 07:11:23;;;;;;;103.93;51.53;;;5.40;99.90;;;;;;5135416;28;20621;-50
2022/03/17 07:13:54;;;;;;;99.50;52.80;;;5.50;99.90;;;;;;5138544;28;20187;-49
2022/03/17 07:16:24;;;;;;;108.77;54.27;;;5.50;99.90;;;;;;5123296;28;20576;-49
2022/03/17 07:18:55;;;;;;;99.83;52.30;;;5.60;99.90;;;;;;5119675;28;20190;-48
2022/03/17 07:21:25;;;;;;;94.90;49.37;;;5.70;99.90;;;;;;5142747;28;20179;-48
2022/03/17 07:23:56;;;;;;;112.07;54.70;;;5.90;99.90;;;;;;5141368;28;20668;-48
2022/03/17 07:26:27;;;;;;;96.47;48.93;;;6.10;99.90;;;;;;5134553;28;21100;-49
2022/03/17 07:28:57;;;;;;;102.70;53.00;;;6.10;99.90;;;;;;5137058;28;20204;-51
2022/03/17 07:31:28;;;;;;;94.60;51.73;;;6.20;99.90;;;;;;5135982;28;20467;-51
2022/03/17 07:34:02;;;;;;;103.30;52.70;;;6.30;99.90;;;;;;5129686;28;20189;-49
2022/03/17 07:36:32;;;;;;;103.27;53.03;;;6.30;99.90;;;;;;5138740;28;20489;-50
2022/03/17 07:39:04;;;;;;;102.40;51.97;;;6.30;99.90;;;;;;5137976;28;20921;-48
2022/03/17 07:41:34;;;;;;;92.53;53.67;;;6.20;99.90;;;;;;5142472;28;20187;-48
2022/03/17 07:44:05;;;;;;;99.47;52.40;;;6.20;99.90;;;;;;5135789;28;20450;-48
2022/03/17 07:46:36;;;;;;;110.50;53.47;;;6.10;99.90;;;;;;5139141;28;20216;-49
2022/03/17 07:49:08;;;;;;;109.87;52.37;;;6.10;99.90;;;;;;5141081;28;20475;-50
2022/03/17 07:51:39;;;;;;;114.70;53.30;;;6.10;99.90;;;;;;5126116;28;20462;-47
2022/03/17 07:54:09;;;;;;;93.50;53.37;;;6.10;99.90;;;;;;5136668;28;20434;-50
2022/03/17 07:56:41;;;;;;;107.37;53.50;;;6.20;99.90;;;;;;5111222;28;20523;-49
2022/03/17 07:59:12;;;;;;;105.77;52.07;;;6.30;99.90;;;;;;5145801;28;20619;-48
2022/03/17 08:01:42;;;;;;;99.00;50.47;;;6.30;99.90;;;;;;5135789;28;20550;-48
2022/03/17 08:04:13;;;;;;;103.57;53.70;;;6.30;99.90;;;;;;5126941;28;20205;-50
2022/03/17 08:06:44;;;;;;;88.97;51.57;;;6.40;99.90;;;;;;5138418;28;20208;-48
2022/03/17 08:09:14;;;;;;;100.77;52.03;;;6.50;99.90;;;;;;5136444;28;20212;-50
2022/03/17 08:11:48;;;;;;;102.50;52.10;;;6.60;99.90;;;;;;5142324;28;20698;-48
2022/03/17 08:14:19;;;;;;;108.10;54.03;;;6.50;99.90;;;;;;5129762;28;20196;-47
2022/03/17 08:16:50;;;;;;;103.63;54.07;;;6.60;99.90;;;;;;5135218;28;20481;-49
2022/03/17 08:19:20;;;;;;;96.17;52.80;;;6.70;99.90;;;;;;5138346;28;20302;-50
2022/03/17 08:21:52;;;;;;;93.57;52.73;;;6.70;99.90;;;;;;5133800;28;20455;-48
2022/03/17 08:24:22;;;;;;;110.80;54.87;;;6.70;99.90;;;;;;5127514;28;20185;-50
2022/03/17 08:26:55;;;;;;;109.80;53.57;;;6.80;99.90;;;;;;5126369;28;20473;-50
2022/03/17 08:29:26;;;;;;;110.37;55.00;;;6.80;99.90;;;;;;5132870;28;20236;-48
2022/03/17 08:31:57;;;;;;;100.13;53.23;;;7.00;99.90;;;;;;5120834;28;20504;-49
2022/03/17 08:34:28;;;;;;;103.93;52.30;;;7.10;99.90;;;;;;5132624;28;20204;-51
2022/03/17 08:36:59;;;;;;;101.67;54.67;;;7.20;99.90;;;;;;5134024;28;20479;-49
2022/03/17 08:39:30;;;;;;;101.73;52.57;;;7.30;99.90;;;;;;5135200;28;20541;-49
2022/03/17 08:42:00;;;;;;;97.40;53.23;;;7.40;99.90;;;;;;5124373;28;20454;-48
2022/03/17 08:44:31;;;;;;;104.13;53.37;;;7.50;99.90;;;;;;5129531;28;20217;-48
2022/03/17 08:50:03;;;;;;;94.30;52.60;;;7.50;99.90;;;;;;5126950;28;20594;-48
2022/03/17 08:52:33;;;;;;;106.17;54.10;;;7.60;99.90;;;;;;5139655;28;21033;-49
2022/03/17 08:55:04;;;;;;;86.07;51.07;;;7.60;99.90;;;;;;5141793;28;20194;-50
2022/03/17 08:57:35;;;;;;;90.63;51.37;;;7.50;99.90;;;;;;5126083;28;20225;-50
2022/03/17 09:00:07;;;;;;;98.17;54.00;;;7.60;99.90;;;;;;5129665;28;20185;-49
2022/03/17 09:02:37;;;;;;;95.03;52.43;;;7.60;99.90;;;;;;5119849;28;20189;-48
2022/03/17 09:05:08;;;;;;;89.80;50.27;;;7.60;99.90;;;;;;5143190;28;20506;-50
2022/03/17 09:07:39;;;;;;;91.07;49.40;;;7.70;99.90;;;;;;5126394;28;20241;-48
2022/03/17 09:10:10;;;;;;;89.00;49.47;;;7.90;99.90;;;;;;5132847;28;20438;-48
2022/03/17 09:12:41;;;;;;;97.80;49.00;;;8.00;99.90;;;;;;5130461;28;20515;-48
2022/03/17 09:15:13;;;;;;;90.60;48.67;;;8.00;99.90;;;;;;5132218;28;20201;-49
2022/03/17 09:17:43;;;;;;;100.30;50.33;;;8.10;99.90;;;;;;5132941;28;20299;-50
2022/03/17 09:20:15;;;;;;;86.37;49.63;;;8.10;99.90;;;;;;5125085;28;20970;-52
2022/03/17 09:22:49;;;;;;;103.00;51.40;;;8.10;99.90;;;;;;5124823;28;20274;-49
2022/03/17 09:25:23;;;;;;;86.67;48.77;;;8.30;99.90;;;;;;5126068;28;20485;-51
2022/03/17 09:27:55;;;;;;;98.00;49.60;;;8.40;99.90;;;;;;5147089;28;20987;-49
2022/03/17 09:30:25;;;;;;;86.77;52.20;;;8.50;99.90;;;;;;5134166;28;20957;-51
2022/03/17 09:32:58;;;;;;;92.03;50.37;;;8.40;99.90;;;;;;5123542;28;20562;-49
2022/03/17 09:35:30;;;;;;;92.43;51.03;;;8.40;99.90;;;;;;5129839;28;20182;-50
2022/03/17 09:38:02;;;;;;;91.33;51.13;;;8.40;99.90;;;;;;5137409;28;20451;-50
2022/03/17 09:40:34;;;;;;;89.83;50.23;;;8.40;99.90;;;;;;5128716;28;20531;-52
2022/03/17 09:43:28;;;;;;;90.37;49.53;;;8.50;99.90;;;;;;5124565;28;20453;-50
2022/03/17 09:45:59;;;;;;;90.83;49.17;;;8.50;99.90;;;;;;5150739;28;20445;-49
2022/03/17 09:48:30;;;;;;;94.17;49.83;;;8.50;99.90;;;;;;5132426;28;20441;-50
2022/03/17 09:51:00;;;;;;;90.90;50.30;;;8.50;99.90;;;;;;5145459;28;20231;-49
2022/03/17 09:53:31;;;;;;;94.73;49.80;;;8.50;99.90;;;;;;5138870;28;20501;-50
2022/03/17 09:56:02;;;;;;;97.53;50.17;;;8.60;99.90;;;;;;5142611;28;20225;-50
2022/03/17 09:58:33;;;;;;;91.10;48.03;;;8.60;99.90;;;;;;5139495;28;20181;-51
2022/03/17 10:01:05;;;;;;;82.97;47.67;;;8.60;99.90;;;;;;5127215;28;20613;-52
2022/03/17 10:03:37;;;;;;;83.53;46.87;;;8.70;99.90;;;;;;5144016;28;20182;-50
2022/03/17 10:06:10;;;;;;;92.60;45.80;;;8.90;99.90;;;;;;5139260;28;20833;-50
2022/03/17 10:08:42;;;;;;;90.93;49.50;;;9.00;99.90;;;;;;5130964;28;20476;-50
2022/03/17 10:11:16;;;;;;;74.37;46.30;;;9.20;99.90;;;;;;5134910;28;20477;-50
2022/03/17 10:13:47;;;;;;;85.77;47.60;;;9.20;99.90;;;;;;5135750;28;20446;-50
2022/03/17 10:16:22;;;;;;;82.77;43.03;;;9.30;99.90;;;;;;5124798;28;20565;-50
2022/03/17 10:18:57;;;;;;;81.37;44.67;;;9.40;99.90;;;;;;5144689;28;20449;-49
2022/03/17 10:21:29;;;;;;;84.03;45.53;;;9.60;99.90;;;;;;5141708;28;20448;-51
2022/03/17 10:24:03;;;;;;;77.90;43.87;;;9.70;99.90;;;;;;5129725;28;20453;-50
2022/03/17 10:26:46;;;;;;;83.10;43.70;;;9.90;99.90;;;;;;5122198;28;20476;-49
2022/03/17 10:29:22;;;;;;;73.97;42.07;;;10.00;99.90;;;;;;5124289;28;20453;-51
2022/03/17 10:31:59;;;;;;;80.73;43.60;;;10.10;99.90;;;;;;5136743;28;20534;-52
2022/03/17 10:34:46;;;;;;;71.60;42.70;;;10.10;99.90;;;;;;5125280;28;20461;-52
2022/03/17 10:37:18;;;;;;;69.23;41.20;;;10.10;99.90;;;;;;5136115;28;20526;-51
2022/03/17 10:39:53;;;;;;;76.47;41.33;;;10.10;99.90;;;;;;5132970;28;20431;-51
2022/03/17 10:42:29;;;;;;;70.90;42.77;;;10.10;99.90;;;;;;5136787;28;20507;-49
2022/03/17 10:45:05;;;;;;;87.10;45.90;;;10.30;99.90;;;;;;5136628;28;20535;-51
2022/03/17 10:47:38;;;;;;;77.67;43.67;;;10.30;99.90;;;;;;5137009;28;20543;-52
2022/03/17 10:50:12;;;;;;;82.90;44.80;;;10.30;99.90;;;;;;5134142;28;20482;-50
2022/03/17 10:52:47;;;;;;;75.80;42.47;;;10.20;99.90;;;;;;5140521;28;20469;-52
2022/03/17 10:55:22;;;;;;;74.40;42.90;;;10.20;99.90;;;;;;5154323;28;20498;-50
2022/03/17 10:58:14;;;;;;;73.23;42.07;;;10.30;99.90;;;;;;5140231;28;20544;-50
2022/03/17 11:00:50;;;;;;;78.43;42.77;;;10.40;99.90;;;;;;5125342;28;20486;-51
2022/03/17 11:03:22;;;;;;;81.00;42.40;;;10.60;99.90;;;;;;5135207;28;20442;-51
2022/03/17 11:05:53;;;;;;;68.63;39.57;;;10.60;99.90;;;;;;5137098;28;20442;-52
2022/03/17 11:08:25;;;;;;;79.93;42.90;;;10.60;99.90;;;;;;5141130;28;20470;-50
2022/03/17 11:10:57;;;;;;;75.80;42.50;;;10.80;99.10;;;;;;5127639;28;20457;-51
2022/03/17 11:13:31;;;;;;;77.63;43.23;;;10.80;98.70;;;;;;5138867;28;20452;-51
2022/03/17 11:16:08;;;;;;;78.53;43.80;;;10.80;98.70;;;;;;5118268;28;20825;-52
2022/03/17 11:18:40;;;;;;;71.40;40.40;;;10.90;98.40;;;;;;5151470;28;20441;-51
2022/03/17 11:21:12;;;;;;;80.00;41.93;;;10.80;97.10;;;;;;5131982;28;20437;-50
2022/03/17 11:23:57;;;;;;;79.03;43.13;;;10.80;97.10;;;;;;5126833;28;20472;-51
2022/03/17 11:26:37;;;;;;;71.77;41.30;;;10.70;97.10;;;;;;5134149;28;20898;-51
2022/03/17 11:29:18;;;;;;;75.97;42.00;;;10.80;96.70;;;;;;5133218;28;20449;-50
2022/03/17 11:31:55;;;;;;;72.53;39.90;;;10.90;96.40;;;;;;5129374;28;20897;-51
2022/03/17 11:34:39;;;;;;;73.03;39.47;;;10.90;95.80;;;;;;5136305;28;20441;-52
2022/03/17 11:37:15;;;;;;;76.23;39.60;;;11.20;94.60;;;;;;5134054;28;20463;-50
2022/03/17 11:39:50;;;;;;;66.80;37.83;;;11.30;93.00;;;;;;5132468;28;20441;-51
2022/03/17 11:42:47;;;;;;;60.90;36.97;;;11.30;92.60;;;;;;5137380;28;20827;-51
2022/03/17 11:45:17;;;;;;;63.00;37.90;;;11.20;91.90;;;;;;5127942;28;20515;-51
2022/03/17 11:47:55;;;;;;;79.53;43.03;;;11.10;91.60;;;;;;5140517;28;20489;-51
2022/03/17 11:50:38;;;;;;;73.97;41.53;;;11.10;92.00;;;;;;5130528;28;20247;-51
2022/03/17 11:53:14;;;;;;;68.47;39.43;;;11.00;91.80;;;;;;5129733;28;20434;-51
2022/03/17 11:55:45;;;;;;;67.10;38.13;;;10.90;91.90;;;;;;5116995;28;20457;-54
2022/03/17 11:58:46;;;;;;;63.37;36.80;;;10.90;91.40;;;;;;5127028;28;20466;-53
2022/03/17 12:01:29;;;;;;;64.97;36.50;;;10.90;91.10;;;;;;5132076;28;20195;-51
2022/03/17 12:04:02;;;;;;;67.17;37.30;;;10.90;90.70;;;;;;5125971;28;20442;-51
2022/03/17 12:06:37;;;;;;;64.00;36.20;;;10.90;90.30;;;;;;5136504;28;20509;-51
2022/03/17 12:09:11;;;;;;;72.97;36.77;;;10.90;89.00;;;;;;5133588;28;20440;-51
2022/03/17 12:11:49;;;;;;;64.87;36.10;;;11.00;87.60;;;;;;5130047;28;20453;-50
2022/03/17 12:14:24;;;;;;;60.63;33.67;;;11.10;86.80;;;;;;5133633;28;20441;-51
2022/03/17 12:17:04;;;;;;;58.03;33.60;;;11.20;84.80;;;;;;5157201;22;20511;-50
2022/03/17 12:19:48;;;;;;;60.90;34.83;;;11.40;82.50;;;;;;5176222;28;20493;-45
2022/03/17 12:22:32;;;;;;;62.77;35.00;;;11.40;81.20;;;;;;5157239;28;20509;-48
2022/03/17 12:25:17;;;;;;;60.00;35.40;;;11.60;80.70;;;;;;5163877;28;20432;-46
2022/03/17 12:28:01;;;;;;;57.10;35.10;;;11.70;79.50;;;;;;5167255;28;20462;-48
2022/03/17 12:30:33;;;;;;;72.00;35.87;;;11.80;76.60;;;;;;5153169;28;21032;-47
2022/03/17 12:33:06;;;;;;;60.73;35.23;;;11.90;76.10;;;;;;5165461;28;20489;-46
2022/03/17 12:35:40;;;;;;;60.53;34.87;;;11.80;74.90;;;;;;5163967;28;20468;-45
2022/03/17 12:38:11;;;;;;;55.33;34.47;;;11.80;75.10;;;;;;5172465;28;20515;-45
2022/03/17 12:40:44;;;;;;;58.40;34.70;;;11.70;75.20;;;;;;5160789;28;20536;-47
2022/03/17 12:43:18;;;;;;;74.30;35.00;;;11.60;75.90;;;;;;5164683;28;20204;-46
2022/03/17 12:45:51;;;;;;;67.67;35.53;;;11.50;75.80;;;;;;5155032;28;20432;-45
2022/03/17 12:48:22;;;;;;;57.40;34.50;;;11.60;75.30;;;;;;5131783;28;20572;-45
2022/03/17 12:51:04;;;;;;;56.73;34.03;;;11.60;75.80;;;;;;5157164;28;20602;-48
2022/03/17 12:53:35;;;;;;;60.73;33.27;;;11.60;75.40;;;;;;5173176;28;20558;-45
2022/03/17 12:56:05;;;;;;;56.40;31.63;;;11.60;76.00;;;;;;5166819;28;20440;-45
2022/03/17 12:58:40;;;;;;;56.87;34.30;;;11.60;75.00;;;;;;5156347;28;20653;-45
2022/03/17 13:01:14;;;;;;;57.93;33.50;;;11.60;75.90;;;;;;5158401;28;20203;-46
2022/03/17 13:03:48;;;;;;;63.87;34.90;;;11.60;75.90;;;;;;5157278;28;21085;-47
2022/03/17 13:09:11;;;;;;;59.77;32.50;;;11.60;74.40;;;;;;5165210;28;20456;-48
2022/03/17 13:14:48;;;;;;;59.53;33.40;;;11.70;73.10;;;;;;5092567;28;21033;-48
2022/03/17 13:17:36;;;;;;;59.57;29.50;;;11.80;71.30;;;;;;5142986;28;20468;-47
2022/03/17 13:20:23;;;;;;;65.53;35.47;;;11.90;71.20;;;;;;5153259;28;20436;-45
2022/03/17 13:23:11;;;;;;;49.97;31.87;;;12.00;70.80;;;;;;5160737;28;21112;-47